createdAt,value
2018-07-01T00:01:38.680Z,0.70
2018-07-01T00:04:06.294Z,1.73
2018-07-01T00:06:33.867Z,0.60
2018-07-01T00:09:01.508Z,0.57
2018-07-01T00:11:29.706Z,2.97
2018-07-01T00:13:57.348Z,0.60
2018-07-01T00:16:24.932Z,0.40
2018-07-01T00:18:52.491Z,1.07
2018-07-01T00:21:20.154Z,1.20
2018-07-01T00:23:47.659Z,1.87
2018-07-01T00:26:15.278Z,0.33
2018-07-01T00:28:43.904Z,0.40
2018-07-01T00:31:11.603Z,0.50
2018-07-01T00:33:39.154Z,1.07
2018-07-01T00:36:06.716Z,0.97
2018-07-01T00:38:34.318Z,0.50
2018-07-01T00:41:02.834Z,0.70
2018-07-01T00:43:30.358Z,0.67
2018-07-01T00:45:57.886Z,0.50
2018-07-01T00:48:25.486Z,0.50
2018-07-01T00:50:53.020Z,1.43
2018-07-01T00:53:20.670Z,1.10
2018-07-01T00:55:48.228Z,0.67
2018-07-01T00:58:15.781Z,0.70
2018-07-01T01:00:43.446Z,0.40
2018-07-01T01:03:11.007Z,0.50
2018-07-01T01:05:38.611Z,0.70
2018-07-01T01:08:06.132Z,0.87
2018-07-01T01:10:33.740Z,0.60
2018-07-01T01:13:02.296Z,1.57
2018-07-01T01:15:29.826Z,0.43
2018-07-01T01:17:57.417Z,0.77
2018-07-01T01:20:24.974Z,0.93
2018-07-01T01:22:52.808Z,1.77
2018-07-01T01:25:20.495Z,0.30
2018-07-01T01:27:48.058Z,0.50
2018-07-01T01:30:15.694Z,2.10
2018-07-01T01:32:43.268Z,0.63
2018-07-01T01:35:10.847Z,0.40
2018-07-01T01:37:38.806Z,1.20
2018-07-01T01:40:07.773Z,0.70
2018-07-01T01:42:40.763Z,0.40
2018-07-01T01:45:15.432Z,1.63
2018-07-01T01:48:20.258Z,1.93
2018-07-01T01:51:11.158Z,1.07
2018-07-01T01:53:43.993Z,1.00
2018-07-01T01:56:15.182Z,0.60
2018-07-01T01:58:59.113Z,1.27
2018-07-01T02:01:37.671Z,1.00
2018-07-01T02:04:12.994Z,0.50
2018-07-01T02:06:44.921Z,0.40
2018-07-01T02:09:16.230Z,0.70
2018-07-01T02:11:46.302Z,0.77
2018-07-01T02:14:18.815Z,0.70
2018-07-01T02:16:49.503Z,1.73
2018-07-01T02:19:17.118Z,0.50
2018-07-01T02:21:44.834Z,0.77
2018-07-01T02:24:16.815Z,0.40
2018-07-01T02:26:44.390Z,0.50
2018-07-01T02:29:12.067Z,0.63
2018-07-01T02:31:39.623Z,0.40
2018-07-01T02:34:07.303Z,0.67
2018-07-01T02:36:34.975Z,0.83
2018-07-01T02:39:02.614Z,0.47
2018-07-01T02:41:30.227Z,0.70
2018-07-01T02:43:57.753Z,0.50
2018-07-01T02:46:32.209Z,0.40
2018-07-01T02:48:59.842Z,0.80
2018-07-01T02:51:27.475Z,0.50
2018-07-01T02:53:55.164Z,0.97
2018-07-01T02:56:22.660Z,0.33
2018-07-01T02:58:50.321Z,0.50
2018-07-01T03:01:17.824Z,0.50
2018-07-01T03:03:45.563Z,0.40
2018-07-01T03:06:13.555Z,0.63
2018-07-01T03:08:41.147Z,0.30
2018-07-01T03:11:08.667Z,0.43
2018-07-01T03:13:36.792Z,1.13
2018-07-01T03:16:04.352Z,0.73
2018-07-01T03:18:31.894Z,0.40
2018-07-01T03:20:59.393Z,1.13
2018-07-01T03:23:27.108Z,0.40
2018-07-01T03:25:54.710Z,0.50
2018-07-01T03:28:22.262Z,1.37
2018-07-01T03:30:49.817Z,0.87
2018-07-01T03:33:17.326Z,0.50
2018-07-01T03:35:44.900Z,0.40
2018-07-01T03:38:12.543Z,0.60
2018-07-01T03:40:40.201Z,0.57
2018-07-01T03:43:07.859Z,0.40
2018-07-01T03:45:35.433Z,0.80
2018-07-01T03:48:03.080Z,0.40
2018-07-01T03:50:31.255Z,1.07
2018-07-01T03:54:01.727Z,0.60
2018-07-01T03:56:29.247Z,0.33
2018-07-01T03:58:56.963Z,0.53
2018-07-01T04:01:24.480Z,0.53
2018-07-01T04:03:52.011Z,0.97
2018-07-01T04:06:19.646Z,0.80
2018-07-01T04:08:47.246Z,0.37
2018-07-01T04:11:14.777Z,0.57
2018-07-01T04:13:42.444Z,0.80
2018-07-01T04:16:10.101Z,0.60
2018-07-01T04:18:37.610Z,0.40
2018-07-01T04:21:05.560Z,0.50
2018-07-01T04:23:33.119Z,0.62
2018-07-01T04:26:00.766Z,1.90
2018-07-01T04:28:28.332Z,0.80
2018-07-01T04:30:55.986Z,0.60
2018-07-01T04:33:23.506Z,1.12
2018-07-01T04:35:51.019Z,2.65
2018-07-01T04:38:18.582Z,1.45
2018-07-01T04:40:46.118Z,3.05
2018-07-01T04:43:13.673Z,1.30
2018-07-01T04:45:41.302Z,1.20
2018-07-01T04:48:09.011Z,1.15
2018-07-01T04:50:36.590Z,1.00
2018-07-01T04:53:04.251Z,0.72
2018-07-01T04:55:31.763Z,0.85
2018-07-01T04:57:59.491Z,1.00
2018-07-01T05:00:27.042Z,0.85
2018-07-01T05:02:54.547Z,0.80
2018-07-01T05:05:22.169Z,0.75
2018-07-01T05:07:49.678Z,0.78
2018-07-01T05:10:17.198Z,1.15
2018-07-01T05:12:44.766Z,0.75
2018-07-01T05:15:12.334Z,1.02
2018-07-01T05:17:39.975Z,0.70
2018-07-01T05:20:07.634Z,1.17
2018-07-01T05:22:35.830Z,0.80
2018-07-01T05:25:03.378Z,1.25
2018-07-01T05:27:31.086Z,1.00
2018-07-01T05:29:58.566Z,1.17
2018-07-01T05:32:26.101Z,0.70
2018-07-01T05:34:53.615Z,0.80
2018-07-01T05:37:21.165Z,0.85
2018-07-01T05:39:48.675Z,1.15
2018-07-01T05:42:16.313Z,1.10
2018-07-01T05:44:43.806Z,0.95
2018-07-01T05:47:11.378Z,1.10
2018-07-01T05:49:39.025Z,0.93
2018-07-01T05:52:06.702Z,0.95
2018-07-01T05:54:34.386Z,0.82
2018-07-01T05:57:01.954Z,1.12
2018-07-01T05:59:29.560Z,1.35
2018-07-01T06:01:57.083Z,1.10
2018-07-01T06:04:24.770Z,0.78
2018-07-01T06:06:52.295Z,1.20
2018-07-01T06:09:19.982Z,2.10
2018-07-01T06:11:47.589Z,1.40
2018-07-01T06:14:15.135Z,1.40
2018-07-01T06:16:42.785Z,2.77
2018-07-01T06:19:10.374Z,3.87
2018-07-01T06:21:37.944Z,3.05
2018-07-01T06:24:05.482Z,2.60
2018-07-01T06:26:33.118Z,3.42
2018-07-01T06:29:00.638Z,2.87
2018-07-01T06:31:28.165Z,0.80
2018-07-01T06:33:55.744Z,0.65
2018-07-01T06:36:23.285Z,2.35
2018-07-01T06:38:51.203Z,2.60
2018-07-01T06:41:18.798Z,0.82
2018-07-01T06:43:46.448Z,0.70
2018-07-01T06:46:13.976Z,1.67
2018-07-01T06:48:41.711Z,0.62
2018-07-01T06:51:09.364Z,0.78
2018-07-01T06:53:36.919Z,0.70
2018-07-01T06:56:04.558Z,0.88
2018-07-01T06:58:32.051Z,0.88
2018-07-01T07:00:59.648Z,0.80
2018-07-01T07:03:27.317Z,0.72
2018-07-01T07:05:54.928Z,0.60
2018-07-01T07:08:22.451Z,2.35
2018-07-01T07:10:49.962Z,2.75
2018-07-01T07:13:17.502Z,2.12
2018-07-01T07:15:45.125Z,1.30
2018-07-01T07:18:12.618Z,0.80
2018-07-01T07:20:40.142Z,0.78
2018-07-01T07:23:07.698Z,0.57
2018-07-01T07:25:35.215Z,0.50
2018-07-01T07:28:03.008Z,1.25
2018-07-01T07:30:30.653Z,0.60
2018-07-01T07:32:58.395Z,0.60
2018-07-01T07:35:25.977Z,0.68
2018-07-01T07:37:53.600Z,1.12
2018-07-01T07:40:21.122Z,3.00
2018-07-01T07:42:48.797Z,1.22
2018-07-01T07:45:16.454Z,2.05
2018-07-01T07:47:44.079Z,0.75
2018-07-01T07:50:11.622Z,0.50
2018-07-01T07:52:39.192Z,1.00
2018-07-01T07:55:06.710Z,0.65
2018-07-01T07:57:34.335Z,0.60
2018-07-01T08:00:02.267Z,0.95
2018-07-01T08:02:29.920Z,1.75
2018-07-01T08:04:57.418Z,0.68
2018-07-01T08:07:25.006Z,1.00
2018-07-01T08:09:52.703Z,0.70
2018-07-01T08:12:20.282Z,0.62
2018-07-01T08:14:47.795Z,1.00
2018-07-01T08:17:15.302Z,0.60
2018-07-01T08:19:42.798Z,1.22
2018-07-01T08:22:10.330Z,1.57
2018-07-01T08:24:37.852Z,0.88
2018-07-01T08:27:05.354Z,0.80
2018-07-01T08:29:32.846Z,1.17
2018-07-01T08:32:00.479Z,5.05
2018-07-01T08:34:28.127Z,0.70
2018-07-01T08:36:55.774Z,0.70
2018-07-01T08:39:23.312Z,0.77
2018-07-01T08:42:22.439Z,1.07
2018-07-01T08:44:51.223Z,0.90
2018-07-01T08:47:18.927Z,2.33
2018-07-01T08:49:46.600Z,1.73
2018-07-01T08:52:14.579Z,0.73
2018-07-01T08:54:42.161Z,1.20
2018-07-01T08:57:09.681Z,0.90
2018-07-01T08:59:37.283Z,0.90
2018-07-01T09:02:04.858Z,0.77
2018-07-01T09:04:32.489Z,1.33
2018-07-01T09:07:00.030Z,1.30
2018-07-01T09:09:27.739Z,0.60
2018-07-01T09:11:56.011Z,1.53
2018-07-01T09:14:23.871Z,0.97
2018-07-01T09:16:51.616Z,0.87
2018-07-01T09:19:19.210Z,0.70
2018-07-01T09:21:46.995Z,1.22
2018-07-01T09:24:14.677Z,1.13
2018-07-01T09:26:42.207Z,0.73
2018-07-01T09:29:09.719Z,1.43
2018-07-01T09:31:37.400Z,0.40
2018-07-01T09:34:04.943Z,0.77
2018-07-01T09:36:32.489Z,0.97
2018-07-01T09:38:59.994Z,1.02
2018-07-01T09:41:27.531Z,0.70
2018-07-01T09:43:55.091Z,1.07
2018-07-01T09:46:22.592Z,1.60
2018-07-01T09:48:50.142Z,1.30
2018-07-01T09:51:17.889Z,0.57
2018-07-01T09:53:45.500Z,1.33
2018-07-01T09:56:13.001Z,1.00
2018-07-01T09:58:40.983Z,1.80
2018-07-01T10:01:08.583Z,0.57
2018-07-01T10:03:36.015Z,0.60
2018-07-01T10:06:03.720Z,1.97
2018-07-01T10:08:31.246Z,0.60
2018-07-01T10:10:58.763Z,4.53
2018-07-01T10:13:26.359Z,1.57
2018-07-01T10:15:53.989Z,0.50
2018-07-01T10:18:21.532Z,0.63
2018-07-01T10:20:49.294Z,3.10
2018-07-01T10:23:16.792Z,0.80
2018-07-01T10:25:44.300Z,1.67
2018-07-01T10:28:11.834Z,0.90
2018-07-01T10:30:39.386Z,0.55
2018-07-01T10:33:07.071Z,0.57
2018-07-01T10:35:34.591Z,0.60
2018-07-01T10:38:02.115Z,0.50
2018-07-01T10:40:29.638Z,0.83
2018-07-01T10:42:57.292Z,0.57
2018-07-01T10:45:24.820Z,0.80
2018-07-01T10:47:52.599Z,0.70
2018-07-01T10:50:20.310Z,1.75
2018-07-01T10:52:47.979Z,1.60
2018-07-01T10:55:15.479Z,1.40
2018-07-01T10:57:42.978Z,0.50
2018-07-01T11:00:10.670Z,0.82
2018-07-01T11:02:38.212Z,0.67
2018-07-01T11:05:05.900Z,1.47
2018-07-01T11:07:33.409Z,2.27
2018-07-01T11:10:00.903Z,1.83
2018-07-01T11:12:28.418Z,1.85
2018-07-01T11:14:55.981Z,1.00
2018-07-01T11:17:23.671Z,1.40
2018-07-01T11:19:51.198Z,1.00
2018-07-01T11:22:18.725Z,0.80
2018-07-01T11:24:46.371Z,0.60
2018-07-01T11:27:14.038Z,1.10
2018-07-01T11:29:41.378Z,1.77
2018-07-01T11:32:08.901Z,1.43
2018-07-01T11:34:36.410Z,2.80
2018-07-01T11:37:03.944Z,1.37
2018-07-01T11:39:31.450Z,1.10
2018-07-01T11:41:58.979Z,1.77
2018-07-01T11:44:26.486Z,1.12
2018-07-01T11:46:53.987Z,1.00
2018-07-01T11:49:21.510Z,0.97
2018-07-01T11:51:49.141Z,0.70
2018-07-01T11:54:16.775Z,2.50
2018-07-01T11:56:44.282Z,0.95
2018-07-01T11:59:11.787Z,0.90
2018-07-01T12:01:39.307Z,2.33
2018-07-01T12:04:06.826Z,0.97
2018-07-01T12:06:34.371Z,1.07
2018-07-01T12:09:01.975Z,1.53
2018-07-01T12:11:29.474Z,0.60
2018-07-01T12:13:57.095Z,1.50
2018-07-01T12:16:24.614Z,1.80
2018-07-01T12:18:52.140Z,1.20
2018-07-01T12:21:19.638Z,0.67
2018-07-01T12:23:47.163Z,0.73
2018-07-01T12:26:16.734Z,1.77
2018-07-01T12:28:44.364Z,1.03
2018-07-01T12:31:11.962Z,0.97
2018-07-01T12:33:39.486Z,0.93
2018-07-01T12:36:07.050Z,2.30
2018-07-01T12:38:34.579Z,1.23
2018-07-01T12:41:02.106Z,0.90
2018-07-01T12:43:29.652Z,3.60
2018-07-01T12:45:57.308Z,2.87
2018-07-01T12:48:24.806Z,0.90
2018-07-01T12:50:52.346Z,1.23
2018-07-01T12:53:19.852Z,3.13
2018-07-01T12:55:47.433Z,6.57
2018-07-01T12:58:14.923Z,0.97
2018-07-01T13:00:43.015Z,4.10
2018-07-01T13:03:10.555Z,1.00
2018-07-01T13:05:38.078Z,1.37
2018-07-01T13:08:05.630Z,0.80
2018-07-01T13:10:33.211Z,1.40
2018-07-01T13:13:00.778Z,3.87
2018-07-01T13:15:28.312Z,7.47
2018-07-01T13:17:55.806Z,5.37
2018-07-01T13:20:23.344Z,3.47
2018-07-01T13:22:50.874Z,3.40
2018-07-01T13:25:18.477Z,1.60
2018-07-01T13:27:45.959Z,1.60
2018-07-01T13:30:13.494Z,0.88
2018-07-01T13:32:41.104Z,1.65
2018-07-01T13:35:08.629Z,1.00
2018-07-01T13:37:36.297Z,0.72
2018-07-01T13:40:03.846Z,1.72
2018-07-01T13:42:31.487Z,7.23
2018-07-01T13:44:59.052Z,4.47
2018-07-01T13:47:26.551Z,0.90
2018-07-01T13:49:54.145Z,1.37
2018-07-01T13:52:21.667Z,0.82
2018-07-01T13:54:49.303Z,2.25
2018-07-01T13:57:16.811Z,0.70
2018-07-01T13:59:44.376Z,1.20
2018-07-01T14:02:11.883Z,1.00
2018-07-01T14:04:39.396Z,0.90
2018-07-01T14:07:06.914Z,1.10
2018-07-01T14:09:34.438Z,1.00
2018-07-01T14:12:01.983Z,0.80
2018-07-01T14:14:29.490Z,1.92
2018-07-01T14:16:57.132Z,0.70
2018-07-01T14:19:24.655Z,0.88
2018-07-01T14:21:52.187Z,1.40
2018-07-01T14:24:19.802Z,0.60
2018-07-01T14:26:47.298Z,0.88
2018-07-01T14:29:14.793Z,2.72
2018-07-01T14:31:42.307Z,1.02
2018-07-01T14:34:09.831Z,0.70
2018-07-01T14:36:37.334Z,1.43
2018-07-01T14:39:08.227Z,0.60
2018-07-01T14:41:35.738Z,0.67
2018-07-01T14:44:03.318Z,1.67
2018-07-01T14:46:30.810Z,0.83
2018-07-01T14:48:58.310Z,0.78
2018-07-01T14:51:25.863Z,1.10
2018-07-01T14:53:53.506Z,0.53
2018-07-01T14:56:21.049Z,5.97
2018-07-01T14:58:48.691Z,2.27
2018-07-01T15:01:16.813Z,1.02
2018-07-01T15:03:44.293Z,2.40
2018-07-01T15:06:11.835Z,1.35
2018-07-01T15:08:39.455Z,2.83
2018-07-01T15:11:07.167Z,1.40
2018-07-01T15:13:34.823Z,1.35
2018-07-01T15:16:02.347Z,1.40
2018-07-01T15:18:29.899Z,1.85
2018-07-01T15:20:57.428Z,1.40
2018-07-01T15:23:25.015Z,0.95
2018-07-01T15:25:52.774Z,0.60
2018-07-01T15:28:20.308Z,1.67
2018-07-01T15:30:47.878Z,0.70
2018-07-01T15:33:15.532Z,1.10
2018-07-01T15:35:43.296Z,0.88
2018-07-01T15:38:10.847Z,0.90
2018-07-01T15:40:38.387Z,0.60
2018-07-01T15:43:05.971Z,0.70
2018-07-01T15:45:33.606Z,2.20
2018-07-01T15:48:01.147Z,0.65
2018-07-01T15:50:28.795Z,0.80
2018-07-01T15:52:56.318Z,0.90
2018-07-01T15:55:23.834Z,0.68
2018-07-01T15:57:51.363Z,0.70
2018-07-01T16:00:18.874Z,2.60
2018-07-01T16:02:46.422Z,0.77
2018-07-01T16:05:13.996Z,2.43
2018-07-01T16:07:41.518Z,0.80
2018-07-01T16:10:09.028Z,1.30
2018-07-01T16:12:36.581Z,1.55
2018-07-01T16:15:04.084Z,0.97
2018-07-01T16:17:31.717Z,1.30
2018-07-01T16:19:59.255Z,1.20
2018-07-01T16:22:26.786Z,0.67
2018-07-01T16:24:59.916Z,1.13
2018-07-01T16:27:31.988Z,0.47
2018-07-01T16:30:00.795Z,0.78
2018-07-01T16:32:28.427Z,1.03
2018-07-01T16:34:56.084Z,1.00
2018-07-01T16:37:23.716Z,1.17
2018-07-01T16:39:51.227Z,1.70
2018-07-01T16:42:18.764Z,7.53
2018-07-01T16:44:46.285Z,1.23
2018-07-01T16:47:13.993Z,0.80
2018-07-01T16:49:41.797Z,0.67
2018-07-01T16:52:09.339Z,0.93
2018-07-01T16:54:36.923Z,2.97
2018-07-01T16:57:04.749Z,1.50
2018-07-01T16:59:32.288Z,1.90
2018-07-01T17:01:59.847Z,1.67
2018-07-01T17:04:27.385Z,0.80
2018-07-01T17:06:54.927Z,2.37
2018-07-01T17:09:22.431Z,1.00
2018-07-01T17:11:49.955Z,1.10
2018-07-01T17:14:17.475Z,0.90
2018-07-01T17:16:45.020Z,2.03
2018-07-01T17:19:12.524Z,1.30
2018-07-01T17:21:40.044Z,1.97
2018-07-01T17:24:07.608Z,1.60
2018-07-01T17:26:35.102Z,1.20
2018-07-01T17:29:02.732Z,1.03
2018-07-01T17:31:35.931Z,2.10
2018-07-01T17:34:03.462Z,0.80
2018-07-01T17:36:30.981Z,0.63
2018-07-01T17:38:58.541Z,1.80
2018-07-01T17:41:26.051Z,0.67
2018-07-01T17:43:53.634Z,0.87
2018-07-01T17:46:21.142Z,1.10
2018-07-01T17:48:48.666Z,0.80
2018-07-01T17:51:16.267Z,0.60
2018-07-01T17:53:49.823Z,2.23
2018-07-01T17:56:17.333Z,9.30
2018-07-01T17:58:45.227Z,9.73
2018-07-01T18:01:12.908Z,40.50
2018-07-01T18:03:40.567Z,30.83
2018-07-01T18:06:08.079Z,15.83
2018-07-01T18:08:36.201Z,4.83
2018-07-01T18:11:03.765Z,3.27
2018-07-01T18:13:31.270Z,1.73
2018-07-01T18:15:58.797Z,1.07
2018-07-01T18:18:26.387Z,0.70
2018-07-01T18:20:53.947Z,2.50
2018-07-01T18:23:53.703Z,0.73
2018-07-01T18:25:49.395Z,1.03
2018-07-01T18:28:30.186Z,0.60
2018-07-01T18:30:44.456Z,0.53
2018-07-01T18:33:11.965Z,1.00
2018-07-01T18:35:39.522Z,1.93
2018-07-01T18:38:07.322Z,0.67
2018-07-01T18:40:34.860Z,0.83
2018-07-01T18:43:02.413Z,0.60
2018-07-01T18:45:29.961Z,2.07
2018-07-01T18:47:57.915Z,0.60
2018-07-01T18:50:25.687Z,0.60
2018-07-01T18:52:53.213Z,0.50
2018-07-01T18:55:20.795Z,0.70
2018-07-01T18:57:48.362Z,0.33
2018-07-01T19:00:15.941Z,0.70
2018-07-01T19:02:43.585Z,0.37
2018-07-01T19:05:11.234Z,0.53
2018-07-01T19:07:38.822Z,1.60
2018-07-01T19:10:06.380Z,1.63
2018-07-01T19:12:33.932Z,1.70
2018-07-01T19:15:01.584Z,0.50
2018-07-01T19:17:29.092Z,2.20
2018-07-01T19:19:56.750Z,0.70
2018-07-01T19:22:24.383Z,0.40
2018-07-01T19:24:51.927Z,0.60
2018-07-01T19:27:19.533Z,0.77
2018-07-01T19:29:48.182Z,0.50
2018-07-01T19:32:15.723Z,4.50
2018-07-01T19:34:43.246Z,0.80
2018-07-01T19:37:10.790Z,1.73
2018-07-01T19:39:38.307Z,0.60
2018-07-01T19:42:05.940Z,0.63
2018-07-01T19:44:33.483Z,0.60
2018-07-01T19:47:01.076Z,1.12
2018-07-01T19:49:28.546Z,0.57
2018-07-01T19:51:56.138Z,0.50
2018-07-01T19:54:23.772Z,0.60
2018-07-01T19:56:51.331Z,1.13
2018-07-01T19:59:18.839Z,1.20
2018-07-01T20:01:46.434Z,1.10
2018-07-01T20:04:14.448Z,0.77
2018-07-01T20:06:42.075Z,0.57
2018-07-01T20:09:10.022Z,1.07
2018-07-01T20:11:37.549Z,1.07
2018-07-01T20:14:05.263Z,0.87
2018-07-01T20:16:32.884Z,1.40
2018-07-01T20:19:00.486Z,0.40
2018-07-01T20:21:28.095Z,1.17
2018-07-01T20:23:55.611Z,0.80
2018-07-01T20:26:23.208Z,1.03
2018-07-01T20:28:50.995Z,1.40
2018-07-01T20:31:18.631Z,0.50
2018-07-01T20:33:46.292Z,1.53
2018-07-01T20:36:13.935Z,0.40
2018-07-01T20:38:41.504Z,0.70
2018-07-01T20:41:09.927Z,0.50
2018-07-01T20:43:37.878Z,0.40
2018-07-01T20:46:05.457Z,0.60
2018-07-01T20:48:33.291Z,0.70
2018-07-01T20:51:00.880Z,0.40
2018-07-01T20:53:28.479Z,0.70
2018-07-01T20:55:55.997Z,0.40
2018-07-01T20:58:23.525Z,1.27
2018-07-01T21:00:51.149Z,0.70
2018-07-01T21:03:18.684Z,0.50
2018-07-01T21:05:46.272Z,0.60
2018-07-01T21:08:13.770Z,0.60
2018-07-01T21:10:41.297Z,0.73
2018-07-01T21:13:08.823Z,0.77
2018-07-01T21:15:36.337Z,1.20
2018-07-01T21:18:04.172Z,0.63
2018-07-01T21:20:31.770Z,0.50
2018-07-01T21:22:59.326Z,1.90
2018-07-01T21:25:26.826Z,1.10
2018-07-01T21:27:54.475Z,1.33
2018-07-01T21:30:22.023Z,0.70
2018-07-01T21:32:49.536Z,1.77
2018-07-01T21:35:17.110Z,2.83
2018-07-01T21:37:44.661Z,1.57
2018-07-01T21:40:12.231Z,1.27
2018-07-01T21:42:39.762Z,1.67
2018-07-01T21:45:07.553Z,0.77
2018-07-01T21:47:35.079Z,0.73
2018-07-01T21:50:02.701Z,0.57
2018-07-01T21:52:30.233Z,1.47
2018-07-01T21:54:57.791Z,1.63
2018-07-01T21:57:25.418Z,0.77
2018-07-01T21:59:52.991Z,1.43
2018-07-01T22:02:21.032Z,0.50
2018-07-01T22:04:48.834Z,4.10
2018-07-01T22:07:16.390Z,2.73
2018-07-01T22:09:43.979Z,1.60
2018-07-01T22:12:17.383Z,0.90
2018-07-01T22:14:50.543Z,2.03
2018-07-01T22:17:18.122Z,0.67
2018-07-01T22:19:45.805Z,0.50
2018-07-01T22:22:13.515Z,2.13
2018-07-01T22:24:41.054Z,0.70
2018-07-01T22:27:08.611Z,1.27
2018-07-01T22:29:36.275Z,2.10
2018-07-01T22:32:04.046Z,3.37
2018-07-01T22:34:31.582Z,2.90
2018-07-01T22:37:00.378Z,2.10
2018-07-01T22:39:29.866Z,1.33
2018-07-01T22:41:58.639Z,0.63
2018-07-01T22:44:26.439Z,2.10
2018-07-01T22:46:54.384Z,1.50
2018-07-01T22:49:21.935Z,1.23
2018-07-01T22:51:49.555Z,2.07
2018-07-01T22:54:17.148Z,1.87
2018-07-01T22:56:44.729Z,0.97
2018-07-01T22:59:12.290Z,0.60
2018-07-01T23:03:46.483Z,1.10
2018-07-01T23:06:14.151Z,0.70
2018-07-01T23:08:41.750Z,1.80
2018-07-01T23:11:10.171Z,0.83
2018-07-01T23:13:37.755Z,0.93
2018-07-01T23:16:05.371Z,0.50
2018-07-01T23:18:33.021Z,0.67
2018-07-01T23:21:00.515Z,0.80
2018-07-01T23:23:28.062Z,0.50
2018-07-01T23:25:55.595Z,0.53
2018-07-01T23:28:23.258Z,0.50
2018-07-01T23:30:50.959Z,0.40
2018-07-01T23:33:18.570Z,2.60
2018-07-01T23:35:46.346Z,0.90
2018-07-01T23:38:13.913Z,0.40
2018-07-01T23:40:41.590Z,1.23
2018-07-01T23:43:09.141Z,1.00
2018-07-01T23:45:36.818Z,0.70
2018-07-01T23:48:04.534Z,0.70
2018-07-01T23:50:32.103Z,2.00
2018-07-01T23:52:59.643Z,1.50
2018-07-01T23:55:27.322Z,1.73
2018-07-01T23:57:55.052Z,0.60
